createdAt,value
2023-12-12T00:00:21.833Z,5.97
2023-12-12T00:03:25.662Z,6.85
2023-12-12T00:06:30.234Z,7.22
2023-12-12T00:09:35.184Z,7.40
2023-12-12T00:12:39.261Z,7.88
2023-12-12T00:15:44.363Z,8.40
2023-12-12T00:18:48.380Z,8.85
2023-12-12T00:21:52.189Z,8.45
2023-12-12T00:24:57.272Z,8.38
2023-12-12T00:28:01.267Z,8.95
2023-12-12T00:31:07.555Z,8.32
2023-12-12T00:34:13.070Z,8.65
2023-12-12T00:37:17.304Z,8.82
2023-12-12T00:40:23.583Z,7.35
2023-12-12T00:43:29.570Z,9.70
2023-12-12T00:46:33.537Z,9.48
2023-12-12T00:49:37.655Z,10.02
2023-12-12T00:52:43.117Z,9.65
2023-12-12T00:55:48.341Z,8.82
2023-12-12T00:58:52.293Z,9.10
2023-12-12T01:01:55.753Z,8.15
2023-12-12T01:05:00.781Z,8.70
2023-12-12T01:08:05.143Z,8.35
2023-12-12T01:11:11.224Z,7.45
2023-12-12T01:14:14.876Z,6.93
2023-12-12T01:17:18.917Z,5.75
2023-12-12T01:20:22.738Z,6.50
2023-12-12T01:23:26.528Z,7.68
2023-12-12T01:26:31.576Z,6.57
2023-12-12T01:29:35.938Z,6.65
2023-12-12T01:32:40.538Z,5.82
2023-12-12T01:35:44.828Z,5.65
2023-12-12T01:38:48.562Z,5.95
2023-12-12T01:41:55.550Z,5.45
2023-12-12T01:45:03.232Z,5.55
2023-12-12T01:48:08.758Z,5.63
2023-12-12T01:51:12.673Z,6.25
2023-12-12T01:54:19.310Z,5.60
2023-12-12T01:57:26.686Z,5.90
2023-12-12T02:00:30.733Z,5.85
2023-12-12T02:03:36.495Z,6.25
2023-12-12T02:06:41.356Z,6.57
2023-12-12T02:09:44.867Z,6.70
2023-12-12T02:12:50.493Z,7.10
2023-12-12T02:16:01.169Z,6.72
2023-12-12T02:19:12.647Z,7.03
2023-12-12T02:22:19.593Z,7.15
2023-12-12T02:25:25.076Z,7.35
2023-12-12T02:28:29.371Z,7.68
2023-12-12T02:31:32.882Z,7.57
2023-12-12T02:34:36.556Z,8.00
2023-12-12T02:37:42.929Z,8.63
2023-12-12T02:40:46.786Z,7.35
2023-12-12T02:43:54.765Z,7.85
2023-12-12T02:46:59.441Z,7.35
2023-12-12T02:50:05.522Z,7.43
2023-12-12T02:53:10.893Z,6.93
2023-12-12T02:56:14.474Z,7.57
2023-12-12T02:59:18.297Z,7.65
2023-12-12T03:02:22.478Z,7.22
2023-12-12T03:05:26.444Z,7.93
2023-12-12T03:08:31.762Z,6.97
2023-12-12T03:11:40.005Z,7.50
2023-12-12T03:14:43.957Z,7.10
2023-12-12T03:17:48.396Z,8.05
2023-12-12T03:20:52.144Z,7.00
2023-12-12T03:23:58.382Z,7.50
2023-12-12T03:27:03.073Z,7.50
2023-12-12T03:30:08.290Z,7.32
2023-12-12T03:33:13.564Z,8.02
2023-12-12T03:36:18.937Z,8.48
2023-12-12T03:39:24.291Z,7.60
2023-12-12T03:42:28.536Z,9.27
2023-12-12T03:45:32.742Z,8.23
2023-12-12T03:48:37.312Z,9.45
2023-12-12T03:51:44.089Z,9.55
2023-12-12T03:54:50.177Z,10.23
2023-12-12T03:57:55.608Z,8.95
2023-12-12T04:01:01.433Z,10.93
2023-12-12T04:04:06.256Z,9.43
2023-12-12T04:07:10.838Z,10.88
2023-12-12T04:10:17.931Z,10.35
2023-12-12T04:13:23.698Z,10.85
2023-12-12T04:16:28.250Z,9.77
2023-12-12T04:19:32.177Z,10.43
2023-12-12T04:22:37.160Z,10.27
2023-12-12T04:25:43.267Z,10.93
2023-12-12T04:28:46.941Z,11.45
2023-12-12T04:31:52.096Z,11.13
2023-12-12T04:34:56.980Z,12.20
2023-12-12T04:38:01.314Z,10.85
2023-12-12T04:41:06.448Z,10.43
2023-12-12T04:44:10.896Z,9.98
2023-12-12T04:47:20.283Z,10.80
2023-12-12T04:50:24.100Z,9.27
2023-12-12T04:53:27.928Z,8.65
2023-12-12T04:56:32.916Z,8.80
2023-12-12T04:59:38.797Z,10.27
2023-12-12T05:02:47.136Z,10.25
2023-12-12T05:09:30.571Z,9.48
2023-12-12T05:12:36.122Z,9.23
2023-12-12T05:15:41.044Z,8.75
2023-12-12T05:18:46.074Z,10.10
2023-12-12T05:21:49.874Z,10.05
2023-12-12T05:24:58.242Z,9.35
2023-12-12T05:28:04.209Z,9.55
2023-12-12T05:31:07.868Z,8.82
2023-12-12T05:34:11.691Z,9.23
2023-12-12T05:37:18.190Z,9.77
2023-12-12T05:40:22.180Z,9.82
2023-12-12T05:43:30.963Z,9.30
2023-12-12T05:46:34.658Z,10.50
2023-12-12T05:49:38.519Z,10.07
2023-12-12T05:52:42.260Z,9.32
2023-12-12T05:55:46.416Z,8.73
2023-12-12T05:58:54.685Z,9.63
2023-12-12T06:02:01.942Z,12.07
2023-12-12T06:05:09.027Z,12.70
2023-12-12T06:08:13.975Z,11.93
2023-12-12T06:11:18.535Z,11.50
2023-12-12T06:14:24.459Z,10.80
2023-12-12T06:17:30.330Z,10.18
2023-12-12T06:20:36.860Z,8.32
2023-12-12T06:23:41.713Z,9.35
2023-12-12T06:26:45.265Z,10.30
2023-12-12T06:29:51.429Z,9.27
2023-12-12T06:33:10.624Z,9.07
2023-12-12T06:39:42.513Z,8.70
2023-12-12T06:42:48.739Z,9.18
2023-12-12T06:45:54.259Z,8.30
2023-12-12T06:48:58.698Z,7.95
2023-12-12T06:52:06.903Z,8.43
2023-12-12T06:55:11.610Z,9.02
2023-12-12T07:02:22.734Z,8.32
2023-12-12T07:05:35.505Z,7.57
2023-12-12T07:08:47.189Z,8.07
2023-12-12T07:12:05.422Z,8.93
2023-12-12T07:15:18.517Z,9.15
2023-12-12T07:18:28.595Z,8.20
2023-12-12T07:21:45.726Z,8.25
2023-12-12T07:24:50.196Z,7.63
2023-12-12T07:27:56.799Z,8.43
2023-12-12T07:31:02.265Z,8.00
2023-12-12T07:34:07.430Z,10.30
2023-12-12T07:37:56.758Z,9.07
2023-12-12T07:41:29.832Z,8.95
2023-12-12T07:44:41.975Z,8.75
2023-12-12T07:47:51.524Z,8.82
2023-12-12T07:51:15.967Z,8.32
2023-12-12T07:54:23.097Z,8.82
2023-12-12T07:57:33.453Z,9.63
2023-12-12T08:00:50.144Z,8.45
2023-12-12T08:04:00.466Z,8.77
2023-12-12T08:07:35.189Z,9.25
2023-12-12T08:10:44.706Z,10.15
2023-12-12T08:13:51.443Z,11.00
2023-12-12T08:17:00.842Z,9.88
2023-12-12T08:20:13.149Z,10.27
2023-12-12T08:23:17.899Z,9.07
2023-12-12T08:26:25.896Z,9.38
2023-12-12T08:33:52.809Z,8.77
2023-12-12T08:37:05.101Z,9.63
2023-12-12T08:40:12.545Z,9.43
2023-12-12T08:43:21.561Z,8.93
2023-12-12T08:46:28.377Z,8.60
2023-12-12T08:49:39.351Z,9.10
2023-12-12T08:52:49.105Z,8.45
2023-12-12T08:55:58.118Z,8.15
2023-12-12T09:03:22.123Z,7.25
2023-12-12T09:06:38.049Z,8.30
2023-12-12T09:09:43.273Z,8.07
2023-12-12T09:13:11.394Z,7.63
2023-12-12T09:16:34.368Z,8.07
2023-12-12T09:19:50.035Z,8.45
2023-12-12T09:23:11.124Z,7.10
2023-12-12T09:26:17.835Z,8.63
2023-12-12T09:29:36.108Z,8.00
2023-12-12T09:32:57.741Z,8.35
2023-12-12T09:36:32.899Z,7.80
2023-12-12T09:40:38.304Z,7.38
2023-12-12T09:44:00.237Z,8.30
2023-12-12T09:47:04.446Z,9.43
2023-12-12T09:50:13.887Z,6.68
2023-12-12T09:53:18.292Z,7.50
2023-12-12T09:56:21.703Z,6.70
2023-12-12T09:59:26.645Z,8.52
2023-12-12T10:02:34.538Z,8.75
2023-12-12T10:05:40.221Z,7.55
2023-12-12T10:08:44.277Z,9.20
2023-12-12T10:11:47.990Z,7.43
2023-12-12T10:14:53.179Z,7.88
2023-12-12T10:17:57.379Z,6.93
2023-12-12T10:21:16.968Z,7.40
2023-12-12T10:24:34.091Z,6.40
2023-12-12T10:27:48.489Z,5.68
2023-12-12T10:31:21.308Z,6.75
2023-12-12T10:38:49.141Z,5.30
2023-12-12T10:41:56.300Z,6.82
2023-12-12T10:45:05.229Z,6.22
2023-12-12T10:48:11.207Z,6.88
2023-12-12T10:55:55.491Z,5.95
2023-12-12T10:59:57.520Z,6.38
2023-12-12T11:03:24.945Z,5.40
2023-12-12T11:06:52.953Z,6.00
2023-12-12T11:10:42.401Z,6.00
2023-12-12T11:14:43.514Z,5.28
2023-12-12T11:18:24.220Z,5.75
2023-12-12T11:22:13.254Z,4.57
2023-12-12T11:25:39.475Z,4.38
2023-12-12T11:29:23.048Z,4.13
2023-12-12T11:37:13.524Z,3.80
2023-12-12T11:43:33.963Z,3.78
2023-12-12T11:46:40.582Z,4.55
2023-12-12T11:49:45.738Z,3.72
2023-12-12T11:52:54.154Z,4.28
2023-12-12T11:56:02.922Z,4.28
2023-12-12T11:59:09.009Z,3.83
2023-12-12T12:02:12.785Z,4.40
2023-12-12T12:05:16.725Z,5.13
2023-12-12T12:08:24.327Z,4.32
2023-12-12T12:11:38.410Z,4.85
2023-12-12T12:14:42.576Z,5.30
2023-12-12T12:17:48.888Z,4.07
2023-12-12T12:20:53.305Z,4.80
2023-12-12T12:23:58.414Z,3.92
2023-12-12T12:27:01.935Z,3.58
2023-12-12T12:30:07.595Z,4.75
2023-12-12T12:33:12.543Z,5.22
2023-12-12T12:36:16.101Z,4.13
2023-12-12T12:39:22.109Z,4.10
2023-12-12T12:42:37.753Z,3.47
2023-12-12T12:46:10.829Z,3.60
2023-12-12T12:49:14.435Z,3.50
2023-12-12T12:52:18.210Z,3.70
2023-12-12T12:55:23.249Z,4.50
2023-12-12T12:58:31.736Z,3.78
2023-12-12T13:01:35.689Z,4.07
2023-12-12T13:04:41.834Z,3.50
2023-12-12T13:07:51.451Z,3.42
2023-12-12T13:10:56.428Z,2.92
2023-12-12T13:14:02.767Z,3.03
2023-12-12T13:17:09.570Z,4.40
2023-12-12T13:20:13.318Z,3.78
2023-12-12T13:23:17.486Z,3.60
2023-12-12T13:26:23.442Z,3.00
2023-12-12T13:29:27.142Z,4.03
2023-12-12T13:32:31.997Z,2.85
2023-12-12T13:35:37.884Z,3.60
2023-12-12T13:38:43.136Z,3.88
2023-12-12T13:41:49.008Z,3.67
2023-12-12T13:44:52.688Z,3.45
2023-12-12T13:47:56.585Z,3.38
2023-12-12T13:51:00.129Z,3.22
2023-12-12T13:54:04.628Z,3.85
2023-12-12T13:57:15.024Z,3.78
2023-12-12T14:00:20.554Z,4.43
2023-12-12T14:03:28.089Z,3.15
2023-12-12T14:06:45.676Z,3.78
2023-12-12T14:09:49.469Z,4.22
2023-12-12T14:12:55.859Z,5.22
2023-12-12T14:16:02.353Z,4.93
2023-12-12T14:19:06.353Z,4.40
2023-12-12T14:22:12.157Z,5.10
2023-12-12T14:25:17.106Z,5.85
2023-12-12T14:28:22.495Z,4.97
2023-12-12T14:31:26.585Z,5.30
2023-12-12T14:34:30.282Z,4.97
2023-12-12T14:37:34.145Z,5.60
2023-12-12T14:40:41.194Z,5.97
2023-12-12T14:43:52.518Z,5.63
2023-12-12T14:46:58.102Z,4.65
2023-12-12T14:50:02.152Z,5.60
2023-12-12T14:53:10.356Z,5.15
2023-12-12T14:56:13.913Z,4.88
2023-12-12T14:59:19.046Z,4.68
2023-12-12T15:02:22.923Z,4.60
2023-12-12T15:05:26.999Z,5.32
2023-12-12T15:08:30.598Z,5.18
2023-12-12T15:11:34.292Z,4.28
2023-12-12T15:14:40.235Z,4.22
2023-12-12T15:17:44.624Z,4.88
2023-12-12T15:20:48.518Z,4.22
2023-12-12T15:23:52.603Z,4.80
2023-12-12T15:26:57.203Z,4.63
2023-12-12T15:30:02.577Z,4.88
2023-12-12T15:33:06.431Z,4.85
2023-12-12T15:36:10.696Z,8.90
2023-12-12T15:39:18.883Z,5.90
2023-12-12T15:42:32.132Z,6.85
2023-12-12T15:45:37.337Z,7.30
2023-12-12T15:48:43.046Z,7.32
2023-12-12T15:51:46.614Z,7.45
2023-12-12T15:54:50.474Z,6.63
2023-12-12T15:57:54.876Z,6.18
2023-12-12T16:01:00.001Z,5.85
2023-12-12T16:04:04.997Z,6.38
2023-12-12T16:07:09.063Z,5.95
2023-12-12T16:10:14.428Z,6.38
2023-12-12T16:13:18.073Z,5.70
2023-12-12T16:16:25.418Z,6.05
2023-12-12T16:19:28.841Z,6.60
2023-12-12T16:22:32.813Z,6.18
2023-12-12T16:25:36.508Z,6.72
2023-12-12T16:28:43.731Z,6.30
2023-12-12T16:31:49.787Z,5.60
2023-12-12T16:34:53.634Z,6.40
2023-12-12T16:37:57.473Z,6.90
2023-12-12T16:41:04.218Z,6.13
2023-12-12T16:44:07.898Z,7.38
2023-12-12T16:47:13.243Z,6.10
2023-12-12T16:50:17.201Z,6.90
2023-12-12T16:53:20.696Z,6.93
2023-12-12T16:56:25.644Z,6.55
2023-12-12T16:59:29.406Z,6.25
2023-12-12T17:02:34.741Z,6.07
2023-12-12T17:05:38.505Z,7.65
2023-12-12T17:08:43.769Z,7.45
2023-12-12T17:11:47.943Z,7.30
2023-12-12T17:14:52.113Z,7.22
2023-12-12T17:17:59.978Z,8.20
2023-12-12T17:21:06.671Z,7.47
2023-12-12T17:24:11.939Z,8.32
2023-12-12T17:27:15.504Z,6.45
2023-12-12T17:30:22.062Z,7.63
2023-12-12T17:33:30.082Z,7.38
2023-12-12T17:36:33.908Z,8.30
2023-12-12T17:39:37.482Z,8.02
2023-12-12T17:42:41.864Z,8.98
2023-12-12T17:45:48.275Z,9.52
2023-12-12T17:49:10.850Z,8.43
2023-12-12T17:55:38.169Z,9.23
2023-12-12T17:58:44.322Z,8.98
2023-12-12T18:01:48.091Z,7.00
2023-12-12T18:04:52.750Z,8.18
2023-12-12T18:07:59.770Z,6.97
2023-12-12T18:11:03.877Z,7.57
2023-12-12T18:14:08.382Z,8.02
2023-12-12T18:17:14.014Z,7.47
2023-12-12T18:20:18.064Z,8.32
2023-12-12T18:23:24.861Z,7.05
2023-12-12T18:26:30.742Z,6.93
2023-12-12T18:29:34.759Z,7.32
2023-12-12T18:32:38.606Z,7.15
2023-12-12T18:35:43.162Z,7.78
2023-12-12T18:38:48.112Z,7.47
2023-12-12T18:41:52.016Z,7.40
2023-12-12T18:44:55.732Z,6.78
2023-12-12T18:48:00.013Z,6.85
2023-12-12T18:51:05.894Z,6.15
2023-12-12T18:54:11.338Z,8.20
2023-12-12T18:57:18.771Z,7.07
2023-12-12T19:00:24.401Z,6.32
2023-12-12T19:03:28.144Z,6.97
2023-12-12T19:06:33.095Z,6.88
2023-12-12T19:09:38.893Z,6.22
2023-12-12T19:12:47.805Z,6.15
2023-12-12T19:15:54.921Z,5.55
2023-12-12T19:18:59.829Z,5.88
2023-12-12T19:22:03.419Z,5.45
2023-12-12T19:25:10.140Z,5.43
2023-12-12T19:28:13.731Z,5.55
2023-12-12T19:31:20.008Z,4.22
2023-12-12T19:34:24.231Z,5.10
2023-12-12T19:37:28.322Z,5.07
2023-12-12T19:40:35.764Z,5.13
2023-12-12T19:43:39.649Z,4.80
2023-12-12T19:46:46.630Z,5.15
2023-12-12T19:49:50.271Z,4.53
2023-12-12T19:52:55.483Z,4.50
2023-12-12T19:56:00.650Z,5.05
2023-12-12T19:59:04.487Z,3.92
2023-12-12T20:02:08.775Z,4.38
2023-12-12T20:05:12.828Z,5.15
2023-12-12T20:08:16.363Z,4.93
2023-12-12T20:11:21.830Z,4.68
2023-12-12T20:14:26.670Z,3.80
2023-12-12T20:17:30.420Z,3.78
2023-12-12T20:20:35.363Z,4.38
2023-12-12T20:23:39.911Z,4.50
2023-12-12T20:26:48.142Z,4.78
2023-12-12T20:29:51.693Z,4.50
2023-12-12T20:32:55.126Z,4.43
2023-12-12T20:35:59.670Z,4.28
2023-12-12T20:39:03.594Z,4.32
2023-12-12T20:42:10.065Z,3.63
2023-12-12T20:45:15.093Z,4.57
2023-12-12T20:48:19.150Z,3.88
2023-12-12T20:51:25.040Z,4.45
2023-12-12T20:54:31.210Z,5.05
2023-12-12T20:57:37.086Z,4.35
2023-12-12T21:00:43.645Z,4.75
2023-12-12T21:03:49.050Z,4.40
2023-12-12T21:06:53.990Z,4.60
2023-12-12T21:09:58.426Z,4.40
2023-12-12T21:13:06.351Z,4.97
2023-12-12T21:16:17.889Z,5.18
2023-12-12T21:19:24.409Z,4.25
2023-12-12T21:22:31.043Z,5.20
2023-12-12T21:25:34.871Z,4.70
2023-12-12T21:28:41.287Z,4.40
2023-12-12T21:31:46.016Z,4.35
2023-12-12T21:34:49.774Z,4.32
2023-12-12T21:37:55.098Z,4.13
2023-12-12T21:40:59.077Z,4.80
2023-12-12T21:44:04.267Z,5.45
2023-12-12T21:47:09.590Z,4.68
2023-12-12T21:50:14.916Z,4.85
2023-12-12T21:53:19.649Z,5.13
2023-12-12T21:56:24.087Z,4.45
2023-12-12T21:59:29.685Z,5.20
2023-12-12T22:02:33.833Z,5.60
2023-12-12T22:05:37.508Z,5.28
2023-12-12T22:08:45.058Z,5.30
2023-12-12T22:11:50.289Z,4.68
2023-12-12T22:14:55.588Z,4.70
2023-12-12T22:17:59.089Z,4.88
2023-12-12T22:21:02.703Z,4.72
2023-12-12T22:24:08.004Z,3.95
2023-12-12T22:27:12.714Z,4.88
2023-12-12T22:30:21.012Z,5.05
2023-12-12T22:33:35.716Z,5.03
2023-12-12T22:36:45.100Z,5.25
2023-12-12T22:39:51.335Z,5.00
2023-12-12T22:42:56.933Z,4.57
2023-12-12T22:46:02.032Z,4.82
2023-12-12T22:49:06.397Z,4.45
2023-12-12T22:52:11.742Z,4.70
2023-12-12T22:55:18.699Z,5.18
2023-12-12T22:58:22.339Z,5.00
2023-12-12T23:01:28.856Z,4.80
2023-12-12T23:04:37.666Z,5.13
2023-12-12T23:07:42.818Z,4.72
2023-12-12T23:10:47.429Z,4.70
2023-12-12T23:13:52.858Z,4.90
2023-12-12T23:16:57.966Z,4.78
2023-12-12T23:20:01.629Z,5.00
2023-12-12T23:23:05.734Z,5.72
2023-12-12T23:26:09.173Z,5.03
2023-12-12T23:29:15.848Z,4.88
2023-12-12T23:32:24.277Z,5.57
2023-12-12T23:35:27.720Z,4.25
2023-12-12T23:38:31.310Z,4.47
2023-12-12T23:41:34.981Z,4.90
2023-12-12T23:44:40.029Z,4.65
2023-12-12T23:47:45.572Z,5.13
2023-12-12T23:50:50.298Z,4.63
2023-12-12T23:53:56.987Z,3.95
2023-12-12T23:57:00.844Z,5.15
